Time;durP1;ratioP1;P1;durP2;ratioP2;P2;SDS_P1;SDS_P2;PMS_P1;PMS_P2;Temp;Humidity;BMP_temperature;BMP_pressure;BME280_temperature;BME280_humidity;BME280_pressure;Samples;Min_cycle;Max_cycle;Signal;HPM_P1;HPM_P2
2023/12/15 00:01:37;;;;;;;40.25;19.65;;;;;;;-146.27;91.58;33188.19;5095816;28;20024;-68
2023/12/15 00:04:03;;;;;;;51.83;20.40;;;;;;;-146.27;90.88;33180.28;5092352;28;20055;-68
2023/12/15 00:06:28;;;;;;;38.03;20.70;;;;;;;-146.27;90.48;33136.63;5092038;28;20510;-68
2023/12/15 00:08:54;;;;;;;43.42;19.50;;;;;;;-146.27;90.47;33104.88;5094243;28;20028;-69
2023/12/15 00:11:19;;;;;;;43.15;18.20;;;;;;;-146.27;90.13;33148.53;5094483;28;20100;-68
2023/12/15 00:13:45;;;;;;;42.85;19.45;;;;;;;-146.27;90.31;33154.47;5087353;28;20023;-68
2023/12/15 00:16:10;;;;;;;40.30;18.85;;;;;;;-146.27;90.25;33176.31;5100339;28;20092;-68
2023/12/15 00:18:35;;;;;;;43.50;20.05;;;;;;;-146.27;90.10;33130.66;5100845;28;20480;-68
2023/12/15 00:21:01;;;;;;;44.33;20.92;;;;;;;-146.27;90.28;33166.38;5108842;28;20356;-69
2023/12/15 00:23:26;;;;;;;38.00;18.20;;;;;;;-146.27;90.38;33164.41;5103761;28;20112;-68
2023/12/15 00:25:51;;;;;;;43.47;19.75;;;;;;;-146.27;90.55;33221.94;5101984;28;20085;-67
2023/12/15 00:28:17;;;;;;;42.42;19.23;;;;;;;-146.27;91.27;33166.38;5105589;28;20024;-67
2023/12/15 00:30:42;;;;;;;38.38;18.95;;;;;;;-146.27;90.88;33124.72;5098790;28;20040;-68
2023/12/15 00:33:08;;;;;;;38.55;20.15;;;;;;;-146.27;90.82;33140.59;5097904;28;20023;-69
2023/12/15 00:35:33;;;;;;;48.78;18.15;;;;;;;-146.27;90.88;33140.59;5097635;28;20027;-69
2023/12/15 00:37:58;;;;;;;40.95;18.80;;;;;;;-146.27;90.77;33116.78;5097505;28;20032;-68
2023/12/15 00:40:23;;;;;;;44.92;18.42;;;;;;;-146.27;90.96;33140.59;5100972;28;20104;-68
2023/12/15 00:42:49;;;;;;;44.65;17.88;;;;;;;-146.27;90.99;33168.38;5094585;28;20023;-68
2023/12/15 00:45:14;;;;;;;48.60;18.40;;;;;;;-146.27;91.43;33170.34;5094383;28;20310;-69
2023/12/15 00:47:40;;;;;;;44.45;20.30;;;;;;;-146.27;91.04;33134.63;5091730;28;20037;-68
2023/12/15 00:50:06;;;;;;;44.13;19.88;;;;;;;-146.27;90.75;33144.56;5095765;28;20027;-69
2023/12/15 00:52:31;;;;;;;44.50;18.98;;;;;;;-146.27;91.01;33174.31;5090846;28;20048;-67
2023/12/15 00:54:57;;;;;;;41.25;18.90;;;;;;;-146.27;90.81;33140.59;5096080;28;20081;-69
2023/12/15 00:57:22;;;;;;;35.83;19.90;;;;;;;-146.27;91.04;33061.22;5084925;28;20032;-69
2023/12/15 00:59:48;;;;;;;47.65;20.15;;;;;;;-146.27;91.29;33150.50;5095689;28;20020;-69
2023/12/15 01:02:14;;;;;;;35.33;17.25;;;;;;;-146.27;90.96;33108.84;5098843;28;20541;-69
2023/12/15 01:04:39;;;;;;;51.42;19.95;;;;;;;-146.27;91.55;33168.38;5099535;28;20065;-69
2023/12/15 01:07:04;;;;;;;36.90;19.08;;;;;;;-146.27;92.36;33217.97;5095453;28;20039;-68
2023/12/15 01:09:29;;;;;;;44.92;19.83;;;;;;;-146.27;92.54;33168.38;5098836;28;20024;-69
2023/12/15 01:11:55;;;;;;;36.90;18.38;;;;;;;-146.27;92.01;33120.75;5095573;28;20032;-68
2023/12/15 01:14:20;;;;;;;38.28;17.85;;;;;;;-146.27;91.69;33168.38;5095960;28;20023;-67
2023/12/15 01:16:47;;;;;;;39.25;18.58;;;;;;;-146.27;91.66;33168.38;5101397;28;20020;-68
2023/12/15 01:19:13;;;;;;;45.97;19.25;;;;;;;-146.27;91.08;33118.75;5098474;28;20156;-67
2023/12/15 01:21:38;;;;;;;39.25;19.00;;;;;;;-146.27;91.02;33112.81;5098274;28;20057;-69
2023/12/15 01:24:03;;;;;;;33.45;17.20;;;;;;;-146.27;90.89;33106.84;5096606;28;20500;-68
2023/12/15 01:26:29;;;;;;;32.70;17.42;;;;;;;-146.27;91.39;33069.16;5100225;28;20136;-68
2023/12/15 01:28:54;;;;;;;41.35;19.90;;;;;;;-146.27;91.89;33142.56;5101572;28;20020;-68
2023/12/15 01:31:20;;;;;;;42.95;18.10;;;;;;;-146.27;91.86;33154.47;5097772;28;20125;-69
2023/12/15 01:33:45;;;;;;;56.33;19.25;;;;;;;-146.27;91.36;33091.00;5097135;28;20043;-68
2023/12/15 01:36:10;;;;;;;41.35;19.23;;;;;;;-146.27;91.23;33094.97;5105932;28;20042;-67
2023/12/15 01:38:36;;;;;;;37.63;18.20;;;;;;;-146.27;90.84;33102.88;5109936;28;20545;-69
2023/12/15 01:41:01;;;;;;;35.72;16.67;;;;;;;-146.27;90.92;33128.69;5106260;28;20744;-68
2023/12/15 01:43:26;;;;;;;40.83;18.65;;;;;;;-146.27;91.46;33142.56;5091670;28;20022;-70
2023/12/15 01:45:52;;;;;;;34.63;17.65;;;;;;;-146.27;91.18;33083.06;5087638;28;20114;-67
2023/12/15 01:48:17;;;;;;;45.83;18.38;;;;;;;-146.27;91.21;33104.88;5110453;28;20028;-68
2023/12/15 01:50:43;;;;;;;33.10;16.10;;;;;;;-146.27;91.07;33108.84;5099182;28;20058;-67
2023/12/15 01:53:08;;;;;;;40.08;17.02;;;;;;;-146.27;91.04;33136.63;5106749;28;20078;-68
2023/12/15 01:55:34;;;;;;;36.33;16.67;;;;;;;-146.27;90.86;33085.03;5106104;27;20420;-68
2023/12/15 01:57:59;;;;;;;36.65;17.63;;;;;;;-146.27;90.84;33120.75;5100816;28;20032;-68
2023/12/15 02:00:24;;;;;;;36.58;15.65;;;;;;;-146.27;90.53;33116.78;5100695;28;20016;-68
2023/12/15 02:02:50;;;;;;;44.47;16.55;;;;;;;-146.27;91.22;33190.19;5099158;28;20028;-68
2023/12/15 02:05:15;;;;;;;38.92;16.83;;;;;;;-146.27;91.31;33118.75;5101046;28;20486;-68
2023/12/15 02:07:40;;;;;;;35.95;16.75;;;;;;;-146.27;91.12;33100.91;5103523;28;20115;-69
2023/12/15 02:10:06;;;;;;;36.67;16.75;;;;;;;-146.27;91.09;33092.97;5100607;28;20606;-69
2023/12/15 02:12:31;;;;;;;41.00;17.08;;;;;;;-146.27;91.02;33079.09;5096889;28;20387;-67
2023/12/15 02:14:57;;;;;;;43.22;16.55;;;;;;;-146.27;91.18;33098.94;5105411;28;20429;-68
2023/12/15 02:17:22;;;;;;;35.17;15.82;;;;;;;-146.27;90.85;33120.75;5081646;28;20472;-68
2023/12/15 02:19:47;;;;;;;36.97;15.27;;;;;;;-146.27;91.18;33110.81;5094058;28;20451;-68
2023/12/15 02:22:13;;;;;;;33.00;15.88;;;;;;;-146.27;91.19;33092.97;5092839;28;20050;-68
2023/12/15 02:24:39;;;;;;;40.15;16.33;;;;;;;-146.27;91.34;33045.34;5105417;28;20303;-69
2023/12/15 02:27:04;;;;;;;33.97;15.18;;;;;;;-146.27;91.47;33112.81;5097301;28;20031;-68
2023/12/15 02:29:31;;;;;;;33.95;15.07;;;;;;;-146.27;91.49;33089.00;5099752;28;20028;-69
2023/12/15 02:31:56;;;;;;;31.83;15.65;;;;;;;-146.27;91.18;33073.13;5072272;28;20048;-69
2023/12/15 02:34:21;;;;;;;38.55;16.55;;;;;;;-146.27;91.31;33043.38;5073227;28;20064;-68
2023/12/15 02:36:47;;;;;;;33.08;16.00;;;;;;;-146.27;91.29;33079.09;5108382;28;20106;-69
2023/12/15 02:39:12;;;;;;;39.92;16.88;;;;;;;-146.27;90.99;33065.19;5093883;28;20024;-68
2023/12/15 02:41:37;;;;;;;44.95;15.45;;;;;;;-146.27;91.07;33077.09;5085548;28;20060;-68
2023/12/15 02:44:03;;;;;;;28.60;14.52;;;;;;;-146.27;91.18;33065.19;5092632;28;20031;-68
2023/12/15 02:46:28;;;;;;;37.80;15.05;;;;;;;-146.27;91.26;33037.41;5072390;28;20039;-67
2023/12/15 02:48:53;;;;;;;43.33;15.27;;;;;;;-146.27;90.94;33045.34;5104462;28;20112;-69
2023/12/15 02:51:29;;;;;;;38.53;14.65;;;;;;;-146.27;90.91;33033.44;5089000;28;20044;-67
2023/12/15 02:53:58;;;;;;;32.67;13.93;;;;;;;-146.27;90.88;33037.41;5094465;28;20019;-68
2023/12/15 02:56:23;;;;;;;31.67;12.98;;;;;;;-146.27;91.05;33077.09;5098290;28;20024;-66
2023/12/15 02:58:49;;;;;;;34.45;13.93;;;;;;;-146.27;91.23;33073.13;5083281;28;20038;-69
2023/12/15 03:01:14;;;;;;;32.10;14.20;;;;;;;-146.27;91.02;33033.44;5100513;28;20051;-67
2023/12/15 03:03:40;;;;;;;31.95;13.23;;;;;;;-146.27;91.17;33029.47;5090488;28;20031;-68
2023/12/15 03:06:05;;;;;;;30.17;13.00;;;;;;;-146.27;91.07;33029.47;5099020;28;20502;-68
2023/12/15 03:08:31;;;;;;;37.58;13.25;;;;;;;-146.27;91.25;33043.38;5098792;28;20587;-68
2023/12/15 03:10:57;;;;;;;33.22;14.93;;;;;;;-146.27;91.63;33092.97;5100021;28;20499;-68
2023/12/15 03:13:24;;;;;;;30.42;13.07;;;;;;;-146.27;91.95;33075.13;5103956;28;20091;-67
2023/12/15 03:15:50;;;;;;;38.15;14.23;;;;;;;-146.27;91.45;33021.53;5104936;28;20028;-68
2023/12/15 03:18:16;;;;;;;35.78;12.95;;;;;;;-146.27;91.78;33081.06;5095758;28;20026;-68
2023/12/15 03:20:41;;;;;;;35.10;14.48;;;;;;;-146.27;91.66;33045.34;5109391;28;20031;-68
2023/12/15 03:23:08;;;;;;;40.15;13.45;;;;;;;-146.27;91.50;32997.75;5103559;28;20453;-69
2023/12/15 03:25:34;;;;;;;34.85;12.80;;;;;;;-146.27;91.36;32971.94;5109755;28;20032;-69
2023/12/15 03:28:00;;;;;;;34.10;13.93;;;;;;;-146.27;90.95;32999.72;5087510;28;20038;-68
2023/12/15 03:30:26;;;;;;;29.45;12.52;;;;;;;-146.27;91.19;32997.75;5098962;28;20480;-68
2023/12/15 03:32:51;;;;;;;30.95;13.30;;;;;;;-146.27;90.87;32975.91;5100133;28;20107;-69
2023/12/15 03:35:17;;;;;;;33.85;13.13;;;;;;;-146.27;90.89;32971.94;5102757;28;20051;-68
2023/12/15 03:37:42;;;;;;;34.72;13.95;;;;;;;-146.27;90.96;32966.00;5110414;28;20424;-68
2023/12/15 03:40:08;;;;;;;33.53;11.57;;;;;;;-146.27;91.34;32993.78;5108451;28;20031;-68
2023/12/15 03:42:33;;;;;;;26.63;12.50;;;;;;;-146.27;91.04;32991.78;5104889;28;20030;-68
2023/12/15 03:44:59;;;;;;;26.50;11.82;;;;;;;-146.27;91.18;32991.78;5100914;28;20031;-68
2023/12/15 03:47:24;;;;;;;37.22;12.98;;;;;;;-146.27;91.03;32987.81;5103472;28;20028;-68
2023/12/15 03:49:49;;;;;;;37.70;12.15;;;;;;;-146.27;90.93;32989.81;5100672;28;20028;-68
2023/12/15 03:52:15;;;;;;;23.55;11.68;;;;;;;-146.27;90.94;32918.38;5108778;28;20031;-68
2023/12/15 03:54:40;;;;;;;33.28;10.68;;;;;;;-146.27;90.86;32981.88;5108559;28;20073;-68
2023/12/15 03:57:05;;;;;;;29.13;10.98;;;;;;;-146.27;90.76;32958.06;5104869;28;20032;-68
2023/12/15 03:59:31;;;;;;;35.70;11.98;;;;;;;-146.27;90.84;32973.94;5104425;28;20117;-66
2023/12/15 04:01:56;;;;;;;25.33;11.85;;;;;;;-146.27;90.85;32942.19;5097836;28;20356;-67
2023/12/15 04:04:21;;;;;;;25.25;12.50;;;;;;;-146.27;90.87;32997.75;5093950;28;20032;-68
2023/12/15 04:06:47;;;;;;;31.23;11.07;;;;;;;-146.27;90.96;32973.94;5108712;28;20076;-68
2023/12/15 04:09:12;;;;;;;39.22;11.25;;;;;;;-146.27;90.79;33005.69;5102945;28;20072;-68
2023/12/15 04:11:37;;;;;;;28.83;10.60;;;;;;;-146.27;91.07;32967.97;5100919;28;20028;-69
2023/12/15 04:14:06;;;;;;;28.65;9.82;;;;;;;-146.27;91.47;32985.84;5099781;28;20106;-69
2023/12/15 04:16:32;;;;;;;34.22;10.82;;;;;;;-146.27;91.45;32981.88;5097921;28;20028;-69
2023/12/15 04:18:58;;;;;;;34.03;11.00;;;;;;;-146.27;91.29;32973.94;5107968;28;20027;-68
2023/12/15 04:21:23;;;;;;;30.15;9.93;;;;;;;-146.27;91.21;32928.31;5099569;28;20031;-68
2023/12/15 04:23:50;;;;;;;23.30;9.90;;;;;;;-146.27;90.77;32946.16;5101752;28;20043;-69
2023/12/15 04:26:15;;;;;;;35.30;10.45;;;;;;;-146.27;90.73;32938.22;5104518;28;20024;-69
2023/12/15 04:28:40;;;;;;;36.50;10.43;;;;;;;-146.27;91.46;32960.03;5108565;28;20092;-68
2023/12/15 04:31:06;;;;;;;24.00;8.48;;;;;;;-146.27;91.26;32950.13;5104803;28;20065;-69
2023/12/15 04:33:31;;;;;;;30.25;9.40;;;;;;;-146.27;91.17;32934.25;5099701;28;20069;-68
2023/12/15 04:35:56;;;;;;;31.60;9.20;;;;;;;-146.27;91.23;32926.31;5094333;28;20054;-68
2023/12/15 04:38:22;;;;;;;29.48;9.40;;;;;;;-146.27;90.83;32924.34;5075358;28;20487;-69
2023/12/15 04:40:47;;;;;;;22.73;7.90;;;;;;;-146.27;90.76;32938.22;5080932;28;20104;-68
2023/12/15 04:43:12;;;;;;;24.45;7.82;;;;;;;-146.27;90.69;32958.06;5103347;28;20119;-69
2023/12/15 04:45:38;;;;;;;27.67;8.00;;;;;;;-146.27;90.66;32934.25;5109262;28;20035;-69
2023/12/15 04:48:04;;;;;;;29.25;8.57;;;;;;;-146.27;90.61;32934.25;5092592;28;20023;-68
2023/12/15 04:50:29;;;;;;;26.17;8.07;;;;;;;-146.27;90.62;32914.41;5098513;28;20062;-68
2023/12/15 04:52:55;;;;;;;30.63;8.25;;;;;;;-146.27;91.05;32954.09;5095262;28;20072;-68
2023/12/15 04:55:20;;;;;;;20.20;7.10;;;;;;;-146.27;90.75;32958.06;5107931;28;20487;-69
2023/12/15 04:57:45;;;;;;;24.50;7.82;;;;;;;-146.27;90.77;32950.13;5095858;28;20043;-69
2023/12/15 05:00:11;;;;;;;24.48;8.25;;;;;;;-146.27;90.80;32954.09;5107208;28;20459;-68
2023/12/15 05:02:37;;;;;;;32.25;8.10;;;;;;;-146.27;91.50;32956.06;5104908;28;20038;-69
2023/12/15 05:05:02;;;;;;;29.83;7.60;;;;;;;-146.27;90.91;32914.41;5101372;28;20079;-68
2023/12/15 05:07:28;;;;;;;31.67;7.47;;;;;;;-146.27;90.58;32946.16;5104173;28;20106;-68
2023/12/15 05:09:54;;;;;;;32.10;6.72;;;;;;;-146.27;90.77;32926.31;5102724;28;20032;-69
2023/12/15 05:12:20;;;;;;;24.80;6.78;;;;;;;-146.27;90.75;32908.47;5093983;28;20028;-69
2023/12/15 05:14:45;;;;;;;28.83;7.43;;;;;;;-146.27;90.71;32866.81;5099703;28;20494;-69
2023/12/15 05:17:11;;;;;;;30.10;8.30;;;;;;;-146.27;90.72;32926.31;5105952;28;20031;-68
2023/12/15 05:19:36;;;;;;;28.83;8.05;;;;;;;-146.27;90.53;32886.63;5096122;28;20400;-69
2023/12/15 05:22:02;;;;;;;31.27;6.78;;;;;;;-146.27;90.56;32894.56;5073303;28;20028;-69
2023/12/15 05:24:31;;;;;;;35.63;7.57;;;;;;;-146.27;90.61;32902.50;5100388;28;20059;-69
2023/12/15 05:26:57;;;;;;;24.33;6.50;;;;;;;-146.27;90.35;32894.56;5072461;28;20028;-68
2023/12/15 05:29:22;;;;;;;28.55;6.90;;;;;;;-146.27;90.53;32894.56;5091949;28;20377;-68
2023/12/15 05:31:48;;;;;;;36.80;8.00;;;;;;;-146.27;90.46;32878.72;5089898;28;20055;-69
2023/12/15 05:34:14;;;;;;;23.52;6.70;;;;;;;-146.27;90.91;32886.63;5104959;28;20027;-68
2023/12/15 05:36:40;;;;;;;28.35;7.03;;;;;;;-146.27;90.74;32896.56;5109322;28;20110;-67
2023/12/15 05:39:05;;;;;;;19.02;6.57;;;;;;;-146.27;90.50;32876.72;5101365;28;20499;-68
2023/12/15 05:41:31;;;;;;;29.48;6.55;;;;;;;-146.27;90.32;32898.53;5102864;28;20020;-68
2023/12/15 05:43:56;;;;;;;26.33;7.63;;;;;;;-146.27;90.96;32908.47;5100091;28;20078;-69
2023/12/15 05:46:21;;;;;;;26.67;7.28;;;;;;;-146.27;90.48;32856.88;5093884;28;20087;-68
2023/12/15 05:48:47;;;;;;;25.00;6.72;;;;;;;-146.27;90.76;32942.19;5100275;28;20445;-68
2023/12/15 05:51:12;;;;;;;25.60;6.70;;;;;;;-146.27;90.79;32900.53;5094306;28;20039;-68
2023/12/15 05:53:37;;;;;;;27.95;6.68;;;;;;;-146.27;90.96;32902.50;5093907;28;20019;-68
2023/12/15 05:56:03;;;;;;;30.30;5.93;;;;;;;-146.27;90.62;32827.13;5101222;28;20392;-69
2023/12/15 05:58:28;;;;;;;32.92;5.97;;;;;;;-146.27;90.13;32862.84;5092672;28;20489;-69
2023/12/15 06:00:53;;;;;;;36.78;7.55;;;;;;;-146.27;89.86;32801.34;5098469;28;20483;-67
2023/12/15 06:03:19;;;;;;;17.75;6.15;;;;;;;-146.27;89.72;32862.84;5095379;28;20477;-69
2023/12/15 06:05:44;;;;;;;32.00;6.88;;;;;;;-146.27;89.49;32848.94;5093530;28;20461;-67
2023/12/15 06:08:11;;;;;;;27.77;5.80;;;;;;;-146.27;89.59;32864.81;5092477;28;20089;-68
2023/12/15 06:10:36;;;;;;;35.30;6.47;;;;;;;-146.27;89.49;32866.81;5089621;28;20495;-68
2023/12/15 06:13:01;;;;;;;30.20;6.07;;;;;;;-146.27;89.68;32894.56;5093071;28;20008;-68
2023/12/15 06:15:27;;;;;;;26.58;6.05;;;;;;;-146.27;89.67;32900.53;5071374;28;20062;-68
2023/12/15 06:17:52;;;;;;;37.17;6.22;;;;;;;-146.27;89.59;32894.56;5090838;28;20635;-67
2023/12/15 06:20:17;;;;;;;25.85;5.40;;;;;;;-146.27;89.52;32900.53;5090238;28;20017;-68
2023/12/15 06:22:43;;;;;;;21.50;5.43;;;;;;;-146.27;89.45;32892.59;5090431;28;20024;-69
2023/12/15 06:25:09;;;;;;;23.10;6.80;;;;;;;-146.27;89.48;32878.72;5103099;28;20036;-69
2023/12/15 06:27:34;;;;;;;22.83;5.22;;;;;;;-146.27;89.45;32886.63;5098935;28;20031;-69
2023/12/15 06:30:00;;;;;;;18.45;5.10;;;;;;;-146.27;89.49;32872.75;5097072;28;20063;-67
2023/12/15 06:32:25;;;;;;;23.25;5.20;;;;;;;-146.27;89.52;32878.72;5090032;28;20454;-68
2023/12/15 06:34:51;;;;;;;20.83;6.65;;;;;;;-146.27;89.59;32874.75;5103193;28;20107;-68
2023/12/15 06:37:16;;;;;;;34.40;6.32;;;;;;;-146.27;89.62;32882.66;5094714;28;20024;-67
2023/12/15 06:39:43;;;;;;;34.60;5.85;;;;;;;-146.27;89.68;32848.94;5105094;28;20032;-69
2023/12/15 06:42:09;;;;;;;35.72;6.40;;;;;;;-146.27;89.88;32890.59;5094224;28;20020;-69
2023/12/15 06:44:34;;;;;;;34.75;5.47;;;;;;;-146.27;89.77;32906.47;5102894;28;20358;-69
2023/12/15 06:46:59;;;;;;;25.15;5.88;;;;;;;-146.27;89.76;32866.81;5105721;28;20030;-69
2023/12/15 06:49:30;;;;;;;27.95;5.78;;;;;;;-146.27;89.56;32880.69;5096233;28;20028;-69
2023/12/15 06:51:57;;;;;;;28.17;5.43;;;;;;;-146.27;89.41;32837.03;5099916;28;20023;-69
2023/12/15 06:54:23;;;;;;;26.77;6.22;;;;;;;-146.27;89.37;32858.88;5090715;28;20028;-69
2023/12/15 06:56:48;;;;;;;32.78;5.72;;;;;;;-146.27;89.30;32906.47;5095875;28;20074;-69
2023/12/15 06:59:13;;;;;;;25.88;5.88;;;;;;;-146.27;89.26;32868.78;5097551;28;20027;-69
2023/12/15 07:01:39;;;;;;;24.42;5.43;;;;;;;-146.27;89.44;32910.44;5104929;27;20027;-69
2023/12/15 07:04:04;;;;;;;25.08;4.88;;;;;;;-146.27;89.42;32860.84;5076235;28;20024;-69
2023/12/15 07:06:30;;;;;;;15.48;4.60;;;;;;;-146.27;89.60;32886.63;5102040;28;20024;-68
2023/12/15 07:08:55;;;;;;;20.15;5.38;;;;;;;-146.27;89.28;32803.31;5097119;28;20019;-69
2023/12/15 07:11:21;;;;;;;41.47;7.53;;;;;;;-146.27;89.15;32823.16;5105375;28;20051;-69
2023/12/15 07:13:46;;;;;;;22.58;5.32;;;;;;;-146.27;89.28;32918.38;5100491;28;20019;-69
2023/12/15 07:16:12;;;;;;;25.95;5.35;;;;;;;-146.27;89.28;32902.50;5096183;28;20463;-70
2023/12/15 07:18:37;;;;;;;21.67;5.00;;;;;;;-146.27;89.42;32827.13;5098352;28;20015;-69
2023/12/15 07:21:03;;;;;;;16.02;5.03;;;;;;;-146.27;89.10;32835.06;5097730;28;20032;-69
2023/12/15 07:23:28;;;;;;;24.67;5.88;;;;;;;-146.27;88.93;32882.66;5095638;28;20081;-69
2023/12/15 07:25:53;;;;;;;20.70;4.68;;;;;;;-146.27;89.13;32843.00;5095679;28;20039;-71
2023/12/15 07:28:19;;;;;;;23.38;5.00;;;;;;;-146.27;89.24;32888.63;5099497;28;20024;-70
2023/12/15 07:30:44;;;;;;;24.40;4.97;;;;;;;-146.27;89.06;32870.78;5099605;28;20100;-71
2023/12/15 07:33:09;;;;;;;27.55;4.35;;;;;;;-146.27;88.83;32866.81;5103876;28;20425;-70
2023/12/15 07:35:35;;;;;;;22.00;4.53;;;;;;;-146.27;88.75;32841.00;5098991;28;20476;-70
2023/12/15 07:38:00;;;;;;;26.88;5.07;;;;;;;-146.27;89.09;32854.91;5093668;28;20035;-71
2023/12/15 07:40:26;;;;;;;24.10;4.47;;;;;;;-146.27;88.87;32896.56;5100813;28;20105;-69
2023/12/15 07:42:51;;;;;;;24.52;5.53;;;;;;;-146.27;89.05;32846.97;5111621;28;20028;-69
2023/12/15 07:45:16;;;;;;;30.45;4.80;;;;;;;-146.27;88.75;32839.03;5113276;28;20452;-68
2023/12/15 07:47:42;;;;;;;23.25;4.63;;;;;;;-146.27;88.54;32848.94;5079234;28;20388;-69
2023/12/15 07:50:07;;;;;;;14.85;4.38;;;;;;;-146.27;88.38;32852.91;5096701;28;20467;-69
2023/12/15 07:52:33;;;;;;;22.23;4.65;;;;;;;-146.27;88.40;32803.31;5113083;28;20035;-69
2023/12/15 07:54:58;;;;;;;30.95;4.60;;;;;;;-146.27;88.32;32803.31;5102931;28;20043;-69
2023/12/15 07:57:23;;;;;;;26.52;5.10;;;;;;;-146.27;88.28;32839.03;5095207;28;20036;-67
2023/12/15 07:59:49;;;;;;;16.83;4.60;;;;;;;-146.27;88.21;32833.06;5108844;28;20073;-69
2023/12/15 08:02:17;;;;;;;21.77;4.68;;;;;;;-146.27;88.67;32835.06;5101158;28;20027;-69
2023/12/15 08:04:42;;;;;;;24.50;5.00;;;;;;;-146.27;88.27;32811.25;5112613;28;20019;-71
2023/12/15 08:07:08;;;;;;;21.20;4.30;;;;;;;-146.27;88.44;32791.41;5104867;28;20032;-69
2023/12/15 08:09:33;;;;;;;23.33;4.20;;;;;;;-146.27;88.30;32787.44;5095314;28;20404;-70
2023/12/15 08:11:58;;;;;;;15.15;3.95;;;;;;;-146.27;87.96;32819.19;5107194;28;20100;-68
2023/12/15 08:14:26;;;;;;;33.83;5.60;;;;;;;-146.27;87.93;32743.81;5101684;28;20468;-68
2023/12/15 08:16:52;;;;;;;21.10;5.10;;;;;;;-146.27;87.76;32843.00;5091937;28;20027;-69
2023/12/15 08:19:17;;;;;;;17.27;4.55;;;;;;;-146.27;87.81;32811.25;5092514;28;20035;-69
2023/12/15 08:21:43;;;;;;;21.90;4.18;;;;;;;-146.27;87.46;32779.50;5099132;28;20031;-69
2023/12/15 08:24:09;;;;;;;27.00;5.18;;;;;;;-146.27;87.13;32803.31;5102608;28;20015;-67
2023/12/15 08:26:34;;;;;;;21.50;4.60;;;;;;;-146.27;87.00;32795.38;5109455;28;20028;-69
2023/12/15 08:28:59;;;;;;;14.50;3.53;;;;;;;-146.27;86.76;32721.97;5093534;28;20046;-69
2023/12/15 08:31:25;;;;;;;14.82;3.83;;;;;;;-146.27;86.89;32745.78;5108420;28;20059;-69
2023/12/15 08:33:51;;;;;;;19.23;4.30;;;;;;;-146.27;86.59;32747.78;5111838;28;20110;-69
2023/12/15 08:36:17;;;;;;;29.45;4.70;;;;;;;-146.27;86.50;32767.59;5097195;28;20032;-68
2023/12/15 08:38:42;;;;;;;17.65;3.47;;;;;;;-146.27;86.47;32692.22;5093596;28;20031;-69
2023/12/15 08:41:08;;;;;;;22.92;3.33;;;;;;;-146.27;86.26;32767.59;5106147;28;20080;-69
2023/12/15 08:43:34;;;;;;;13.60;3.80;;;;;;;-146.27;86.31;32731.91;5103169;28;20015;-67
2023/12/15 08:45:59;;;;;;;16.08;3.25;;;;;;;-146.27;85.92;32708.09;5092882;28;20102;-68
2023/12/15 08:48:25;;;;;;;27.60;4.47;;;;;;;-146.27;85.42;32708.09;5104009;27;20039;-69
2023/12/15 08:50:50;;;;;;;17.75;3.90;;;;;;;-146.27;85.43;32708.09;5104694;28;20019;-69
2023/12/15 08:53:18;;;;;;;20.67;3.40;;;;;;;-146.27;85.14;32723.97;5102237;28;20023;-70
2023/12/15 08:55:43;;;;;;;18.10;3.55;;;;;;;-146.27;84.97;32727.94;5100525;28;20028;-69
2023/12/15 08:58:09;;;;;;;26.13;3.88;;;;;;;-146.27;84.44;32755.69;5097577;28;20028;-69
2023/12/15 09:00:35;;;;;;;11.95;3.30;;;;;;;-146.27;84.76;32662.47;5107327;28;20027;-69
2023/12/15 09:03:01;;;;;;;15.18;3.28;;;;;;;-146.27;84.12;32612.88;5096229;28;20028;-69
2023/12/15 09:05:26;;;;;;;23.10;3.20;;;;;;;-146.27;83.45;32712.06;5104014;28;20374;-69
2023/12/15 09:07:52;;;;;;;15.75;3.63;;;;;;;-146.27;83.63;32640.66;5090107;28;20050;-69
2023/12/15 09:10:18;;;;;;;12.95;2.38;;;;;;;-146.27;82.72;32676.34;5097663;28;20031;-69
2023/12/15 09:12:44;;;;;;;19.45;3.28;;;;;;;-146.27;82.41;32638.66;5096509;28;20056;-68
2023/12/15 09:15:10;;;;;;;18.52;3.60;;;;;;;-146.27;81.44;32652.53;5106784;28;20473;-69
2023/12/15 09:17:35;;;;;;;16.67;3.15;;;;;;;-146.27;80.66;32662.47;5091495;28;20151;-69
2023/12/15 09:20:03;;;;;;;14.70;2.85;;;;;;;-146.27;80.01;32692.22;5076841;28;20028;-69
2023/12/15 09:22:29;;;;;;;7.68;2.45;;;;;;;-146.27;79.31;32696.19;5100600;28;20023;-69
2023/12/15 09:24:54;;;;;;;13.15;2.50;;;;;;;-146.27;79.05;32638.66;5102824;28;20020;-70
2023/12/15 09:27:20;;;;;;;15.35;2.47;;;;;;;-146.27;78.75;32593.03;5105485;28;20196;-68
2023/12/15 09:29:45;;;;;;;10.65;2.55;;;;;;;-146.27;78.39;32624.78;5101052;28;20051;-69
2023/12/15 09:32:11;;;;;;;16.17;3.00;;;;;;;-146.27;78.60;32614.84;5098103;28;20391;-70
2023/12/15 09:34:36;;;;;;;16.60;2.53;;;;;;;-146.27;78.43;32602.94;5096949;28;20107;-72
2023/12/15 09:37:02;;;;;;;16.13;2.38;;;;;;;-146.27;78.28;32630.72;5094076;28;20055;-69
2023/12/15 09:39:27;;;;;;;14.48;3.15;;;;;;;-146.27;78.18;32620.81;5100345;28;20023;-68
2023/12/15 09:41:52;;;;;;;8.63;2.20;;;;;;;-146.27;78.02;32557.31;5102745;28;20020;-67
2023/12/15 09:44:19;;;;;;;8.93;1.95;;;;;;;-146.27;77.84;32595.03;5102264;28;20360;-68
2023/12/15 09:46:44;;;;;;;19.55;3.05;;;;;;;-146.27;78.18;32569.22;5094038;28;20031;-68
2023/12/15 09:49:15;;;;;;;17.20;2.55;;;;;;;-146.27;78.05;32642.63;5098257;28;20032;-69
2023/12/15 09:51:48;;;;;;;18.45;3.00;;;;;;;-146.27;78.05;32581.13;5104215;28;20027;-68
2023/12/15 09:54:14;;;;;;;;;;;;;;;-146.27;78.14;32523.59;5101724;28;20015;-67
2023/12/15 09:56:40;;;;;;;14.82;2.50;;;;;;;-146.27;78.13;32507.72;5105948;28;19919;-68
2023/12/15 09:59:05;;;;;;;19.60;3.75;;;;;;;-146.27;77.63;32537.50;5094147;28;20437;-68
2023/12/15 10:01:31;;;;;;;15.90;2.78;;;;;;;-146.27;77.74;32569.22;5094118;28;20028;-67
2023/12/15 10:03:57;;;;;;;22.90;3.65;;;;;;;-146.27;77.29;32545.44;5098766;28;20020;-68
2023/12/15 10:06:23;;;;;;;19.60;2.50;;;;;;;-146.27;76.62;32553.34;5106020;28;20364;-70
2023/12/15 10:08:49;;;;;;;19.40;2.25;;;;;;;-146.27;76.32;32525.59;5094451;28;20491;-69
2023/12/15 10:11:16;;;;;;;16.42;2.72;;;;;;;-146.27;75.58;32517.66;5096286;28;20122;-69
2023/12/15 10:13:42;;;;;;;18.60;3.78;;;;;;;-146.27;75.20;32474.00;5096800;28;20019;-68
2023/12/15 10:16:11;;;;;;;18.85;2.65;;;;;;;-146.27;74.57;32476.00;5090500;28;20463;-68
2023/12/15 10:18:40;;;;;;;15.35;2.67;;;;;;;-146.27;74.30;32505.75;5116260;28;20501;-69
2023/12/15 10:21:06;;;;;;;17.35;2.53;;;;;;;-146.27;73.81;32466.06;5097714;28;20027;-69
2023/12/15 10:23:32;;;;;;;12.43;2.47;;;;;;;-146.27;73.97;32545.44;5109153;28;20036;-69
2023/12/15 10:26:05;;;;;;;9.88;2.75;;;;;;;-146.27;73.59;32479.97;5098099;28;20480;-69
2023/12/15 10:28:38;;;;;;;13.40;3.37;;;;;;;-146.27;73.17;32577.16;5101100;28;20594;-68
2023/12/15 10:31:04;;;;;;;;;;;;;;;-146.27;72.65;32495.84;5095579;28;20048;-70
2023/12/15 10:33:29;;;;;;;20.20;2.53;;;;;;;-146.27;72.33;32452.19;5109749;28;20458;-68
2023/12/15 10:35:58;;;;;;;10.35;1.75;;;;;;;-146.27;71.88;32452.19;5111577;28;20472;-67
2023/12/15 10:38:24;;;;;;;16.48;2.03;;;;;;;-146.27;71.50;32462.09;5083366;28;20069;-67
2023/12/15 10:40:50;;;;;;;13.45;2.63;;;;;;;-146.27;71.08;32460.13;5101668;28;20024;-67
2023/12/15 10:43:16;;;;;;;10.57;2.10;;;;;;;-146.27;70.12;32505.75;5107778;28;20026;-68
2023/12/15 10:45:44;;;;;;;10.98;2.33;;;;;;;-146.27;69.80;32462.09;5100010;28;20032;-68
2023/12/15 10:48:10;;;;;;;18.80;2.15;;;;;;;-146.27;70.12;32436.31;5092668;28;20035;-68
2023/12/15 10:50:37;;;;;;;9.65;1.50;;;;;;;-146.27;69.48;32481.94;5098287;28;20024;-68
2023/12/15 10:53:03;;;;;;;12.63;1.98;;;;;;;-146.27;69.46;32460.13;5100122;28;20126;-68
2023/12/15 10:55:28;;;;;;;12.75;1.92;;;;;;;-146.27;69.29;32513.69;5105366;28;20477;-68
2023/12/15 10:57:58;;;;;;;10.43;1.83;;;;;;;-146.27;68.86;32406.56;5100895;28;20031;-68
2023/12/15 11:00:23;;;;;;;7.85;1.95;;;;;;;-146.27;69.31;32485.91;5105751;28;20020;-68